Observation data for Levelland on 02/14/2020      Previous  Date  Next       Current Mesonet Observations  Soil Data  Daily Summary Page  Observations in Plain Language
KLD1 140600Z 12012G18KT M02/M03 A3026 RMK A01 T10211030  RH  094%=      5-min Rain = 0
KLD1 140605Z 13012G17KT M02/M03 A3026 RMK A01 T10211030  RH  094%=      5-min Rain = 0
KLD1 140610Z 13012G17KT M02/M03 A3026 RMK A01 T10211030  RH  094%=      5-min Rain = 0
KLD1 140615Z 13013G18KT M02/M03 A3026 RMK A01 T10211031  RH  094%=      5-min Rain = 0
KLD1 140620Z 13013KT M02/M03 A3026 RMK A01 T10221031  RH  094%=      5-min Rain = 0
KLD1 140625Z 13012KT M02/M03 A3026 RMK A01 T10231032  RH  094%=      5-min Rain = 0
KLD1 140630Z 13011KT M02/M03 A3026 RMK A01 T10221032  RH  094%=      5-min Rain = 0
KLD1 140635Z 14011KT M02/M03 A3026 RMK A01 T10231032  RH  094%=      5-min Rain = 0
KLD1 140640Z 13010G15KT M02/M03 A3026 RMK A01 T10231033  RH  094%=      5-min Rain = 0
KLD1 140645Z 13010KT M02/M03 A3026 RMK A01 T10241033  RH  094%=      5-min Rain = 0
KLD1 140650Z 14009KT M02/M03 A3026 RMK A01 T10241033  RH  094%=      5-min Rain = 0
KLD1 140655Z 13009KT M02/M03 A3027 RMK A01 T10241033  RH  094%=      5-min Rain = 0
KLD1 140700Z 13010KT M02/M03 A3027 RMK A01 T10241033  RH  094%=      5-min Rain = 0
KLD1 140705Z 13009G14KT M02/M03 A3027 RMK A01 T10241033  RH  094%=      5-min Rain = 0
KLD1 140710Z 13011KT M02/M03 A3027 RMK A01 T10241034  RH  094%=      5-min Rain = 0
KLD1 140715Z 13012G17KT M03/M03 A3027 RMK A01 T10251034  RH  094%=      5-min Rain = 0
KLD1 140720Z 13012KT M03/M04 A3027 RMK A01 T10251035  RH  094%=      5-min Rain = 0
KLD1 140725Z 12010KT M03/M03 A3027 RMK A01 T10251034  RH  094%=      5-min Rain = 0
KLD1 140730Z 13011KT M03/M03 A3027 RMK A01 T10251034  RH  094%=      5-min Rain = 0
KLD1 140735Z 13011KT M03/M03 A3027 RMK A01 T10251034  RH  094%=      5-min Rain = 0
KLD1 140740Z 13010KT M03/M03 A3027 RMK A01 T10251034  RH  094%=      5-min Rain = 0
KLD1 140745Z 13012KT M03/M03 A3027 RMK A01 T10251034  RH  094%=      5-min Rain = 0
KLD1 140750Z 13011KT M03/M04 A3027 RMK A01 T10251035  RH  093%=      5-min Rain = 0
KLD1 140755Z 13011KT M03/M04 A3027 RMK A01 T10251035  RH  093%=      5-min Rain = 0
KLD1 140800Z 13009KT M03/M04 A3027 RMK A01 T10251035  RH  093%=      5-min Rain = 0
KLD1 140805Z 12008KT M03/M04 A3027 RMK A01 T10251035  RH  093%=      5-min Rain = 0
KLD1 140810Z 12009KT M03/M04 A3027 RMK A01 T10261035  RH  094%=      5-min Rain = 0
KLD1 140815Z 13009KT M03/M04 A3027 RMK A01 T10271037  RH  094%=      5-min Rain = 0
KLD1 140820Z 12008KT M03/M04 A3027 RMK A01 T10271037  RH  094%=      5-min Rain = 0
KLD1 140825Z 13008G14KT M03/M04 A3027 RMK A01 T10271037  RH  094%=      5-min Rain = 0
KLD1 140830Z 13007KT M03/M04 A3027 RMK A01 T10281037  RH  094%=      5-min Rain = 0
KLD1 140835Z 12009KT M03/M04 A3027 RMK A01 T10281038  RH  094%=      5-min Rain = 0
KLD1 140840Z 12008KT M03/M04 A3027 RMK A01 T10291038  RH  094%=      5-min Rain = 0
KLD1 140845Z 12008KT M03/M04 A3027 RMK A01 T10291038  RH  094%=      5-min Rain = 0
KLD1 140850Z 12008KT M03/M04 A3027 RMK A01 T10291038  RH  094%=      5-min Rain = 0
KLD1 140855Z 13009KT M03/M04 A3027 RMK A01 T10291038  RH  094%=      5-min Rain = 0
KLD1 140900Z 13008KT M03/M04 A3027 RMK A01 T10291038  RH  094%=      5-min Rain = 0
KLD1 140905Z 13011G16KT M03/M04 A3027 RMK A01 T10291038  RH  094%=      5-min Rain = 0
KLD1 140910Z 14013G19KT M03/M04 A3027 RMK A01 T10291038  RH  094%=      5-min Rain = 0
KLD1 140915Z 14014KT M03/M04 A3027 RMK A01 T10301039  RH  094%=      5-min Rain = 0
KLD1 140920Z 14014KT M03/M04 A3027 RMK A01 T10301039  RH  095%=      5-min Rain = 0
KLD1 140925Z 14014KT M03/M04 A3027 RMK A01 T10311039  RH  095%=      5-min Rain = 0
KLD1 140930Z 14011KT M03/M04 A3027 RMK A01 T10311038  RH  095%=      5-min Rain = 0
KLD1 140935Z 14013KT M03/M04 A3027 RMK A01 T10311037  RH  096%=      5-min Rain = 0
KLD1 140940Z 15010G15KT M03/M04 A3027 RMK A01 T10311037  RH  096%=      5-min Rain = 0
KLD1 140945Z 14010KT M03/M04 A3027 RMK A01 T10311036  RH  097%=      5-min Rain = 0
KLD1 140950Z 14010KT M03/M04 A3027 RMK A01 T10311036  RH  097%=      5-min Rain = 0
KLD1 140955Z 14009KT M03/M04 A3027 RMK A01 T10311035  RH  097%=      5-min Rain = 0
KLD1 141000Z 13009KT M03/M04 A3027 RMK A01 T10311035  RH  097%=      5-min Rain = 0
KLD1 141005Z 13009KT M03/M03 A3027 RMK A01 T10301034  RH  098%=      5-min Rain = 0
KLD1 141010Z 14011KT M03/M03 A3027 RMK A01 T10301034  RH  098%=      5-min Rain = 0
KLD1 141015Z 14009KT M03/M03 A3027 RMK A01 T10301033  RH  098%=      5-min Rain = 0
KLD1 141020Z 15010KT M03/M03 A3027 RMK A01 T10291032  RH  098%=      5-min Rain = 0
KLD1 141025Z 14011KT M03/M03 A3027 RMK A01 T10291032  RH  098%=      5-min Rain = 0
KLD1 141030Z 15010G15KT M03/M03 A3027 RMK A01 T10281031  RH  099%=      5-min Rain = 0
KLD1 141035Z 15012KT M03/M03 A3027 RMK A01 T10271030  RH  099%=      5-min Rain = 0
KLD1 141040Z 14012KT M03/M03 A3027 RMK A01 T10271029  RH  099%=      5-min Rain = 0
KLD1 141045Z 15011KT M03/M03 A3027 RMK A01 T10261028  RH  099%=      5-min Rain = 0
KLD1 141050Z 15012KT M03/M03 A3027 RMK A01 T10261028  RH  099%=      5-min Rain = 0
KLD1 141055Z 15011KT M03/M03 A3027 RMK A01 T10261028  RH  099%=      5-min Rain = 0
KLD1 141100Z 15009KT M03/M03 A3027 RMK A01 T10251027  RH  099%=      5-min Rain = 0
KLD1 141105Z 14010KT M03/M03 A3027 RMK A01 T10261028  RH  099%=      5-min Rain = 0
KLD1 141110Z 15011KT M03/M03 A3027 RMK A01 T10261028  RH  099%=      5-min Rain = 0
KLD1 141115Z 15011KT M03/M03 A3027 RMK A01 T10261028  RH  099%=      5-min Rain = 0
KLD1 141120Z 15012KT M03/M03 A3027 RMK A01 T10261028  RH  099%=      5-min Rain = 0
KLD1 141125Z 15011KT M03/M03 A3027 RMK A01 T10261028  RH  099%=      5-min Rain = 0
KLD1 141130Z 15011KT M03/M03 A3027 RMK A01 T10261028  RH  099%=      5-min Rain = 0
KLD1 141135Z 16011KT M03/M03 A3027 RMK A01 T10261028  RH  099%=      5-min Rain = 0
KLD1 141140Z 15011KT M03/M03 A3027 RMK A01 T10261029  RH  099%=      5-min Rain = 0
KLD1 141145Z 15011KT M03/M03 A3027 RMK A01 T10261029  RH  099%=      5-min Rain = 0
KLD1 141150Z 15011KT M03/M03 A3027 RMK A01 T10261028  RH  099%=      5-min Rain = 0
KLD1 141155Z 15011KT M03/M03 A3027 RMK A01 T10261029  RH  098%=      5-min Rain = 0
KLD1 141200Z 15012KT M03/M03 A3027 RMK A01 T10261029  RH  098%=      5-min Rain = 0
KLD1 141205Z 15012KT M03/M03 A3027 RMK A01 T10261029  RH  098%=      5-min Rain = 0
KLD1 141210Z 16011KT M03/M03 A3027 RMK A01 T10251028  RH  099%=      5-min Rain = 0
KLD1 141215Z 16013G18KT M03/M03 A3027 RMK A01 T10261028  RH  099%=      5-min Rain = 0
KLD1 141220Z 16013KT M03/M03 A3027 RMK A01 T10261028  RH  099%=      5-min Rain = 0
KLD1 141225Z 16013KT M03/M03 A3027 RMK A01 T10261028  RH  099%=      5-min Rain = 0
KLD1 141230Z 16013KT M03/M03 A3027 RMK A01 T10261028  RH  099%=      5-min Rain = 0
KLD1 141235Z 15009G15KT M03/M03 A3027 RMK A01 T10251027  RH  099%=      5-min Rain = 0
KLD1 141240Z 15010KT M03/M03 A3027 RMK A01 T10261028  RH  099%=      5-min Rain = 0
KLD1 141245Z 14009KT M03/M03 A3027 RMK A01 T10261029  RH  099%=      5-min Rain = 0
KLD1 141250Z 15009KT M03/M03 A3027 RMK A01 T10261028  RH  099%=      5-min Rain = 0
KLD1 141255Z 15009KT M03/M03 A3028 RMK A01 T10261028  RH  099%=      5-min Rain = 0
KLD1 141300Z 16009KT M03/M03 A3028 RMK A01 T10261028  RH  099%=      5-min Rain = 0
KLD1 141305Z 16008KT M03/M03 A3028 RMK A01 T10261027  RH  099%=      5-min Rain = 0
KLD1 141310Z 17011KT M03/M03 A3028 RMK A01 T10251027  RH  100%=      5-min Rain = 0
KLD1 141315Z 16010G16KT M03/M03 A3028 RMK A01 T10251026  RH  100%=      5-min Rain = 0
KLD1 141320Z 16011KT M03/M03 A3028 RMK A01 T10251026  RH  100%=      5-min Rain = 0
KLD1 141325Z 16011KT M03/M03 A3028 RMK A01 T10251026  RH  100%=      5-min Rain = 0
KLD1 141330Z 16009KT M03/M03 A3028 RMK A01 T10251026  RH  100%=      5-min Rain = 0
KLD1 141335Z 16009G14KT M02/M03 A3029 RMK A01 T10241026  RH  100%=      5-min Rain = 0
KLD1 141340Z 16011KT M03/M03 A3028 RMK A01 T10251026  RH  100%=      5-min Rain = 0
KLD1 141345Z 16010KT M03/M03 A3028 RMK A01 T10251026  RH  100%=      5-min Rain = 0
KLD1 141350Z 16011KT M03/M03 A3028 RMK A01 T10251026  RH  100%=      5-min Rain = 0
KLD1 141355Z 16009KT M03/M03 A3028 RMK A01 T10251026  RH  100%=      5-min Rain = 0
KLD1 141400Z 16009KT M02/M03 A3028 RMK A01 T10241025  RH  100%=      5-min Rain = 0
KLD1 141405Z 16009KT M02/M03 A3028 RMK A01 T10231025  RH  100%=      5-min Rain = 0
KLD1 141410Z 15008KT M02/M03 A3028 RMK A01 T10241025  RH  100%=      5-min Rain = 0
KLD1 141415Z 15009KT M02/M03 A3029 RMK A01 T10241025  RH  100%=      5-min Rain = 0
KLD1 141420Z 15009KT M02/M03 A3029 RMK A01 T10241025  RH  100%=      5-min Rain = 0
KLD1 141425Z 15009KT M02/M03 A3029 RMK A01 T10241025  RH  100%=      5-min Rain = 0
KLD1 141430Z 16009KT M02/M02 A3029 RMK A01 T10231024  RH  100%=      5-min Rain = 0
KLD1 141435Z 15008KT M02/M03 A3029 RMK A01 T10241025  RH  100%=      5-min Rain = 0
KLD1 141440Z 15008KT M02/M03 A3029 RMK A01 T10241025  RH  100%=      5-min Rain = 0
KLD1 141445Z 15008KT M02/M03 A3029 RMK A01 T10241026  RH  100%=      5-min Rain = 0
KLD1 141450Z 15008KT M02/M03 A3029 RMK A01 T10241026  RH  100%=      5-min Rain = 0
KLD1 141455Z 15008KT M02/M03 A3029 RMK A01 T10231025  RH  100%=      5-min Rain = 0
KLD1 141500Z 15008KT M02/M03 A3029 RMK A01 T10231025  RH  100%=      5-min Rain = 0
KLD1 141505Z 15009KT M02/M03 A3029 RMK A01 T10241026  RH  100%=      5-min Rain = 0
KLD1 141510Z 15007KT M02/M02 A3029 RMK A01 T10231024  RH  100%=      5-min Rain = 0
KLD1 141515Z 15009KT M02/M02 A3029 RMK A01 T10221023  RH  100%=      5-min Rain = 0
KLD1 141520Z 16009KT M02/M02 A3029 RMK A01 T10201021  RH  100%=      5-min Rain = 0
KLD1 141525Z 15009KT M02/M02 A3029 RMK A01 T10211022  RH  100%=      5-min Rain = 0
KLD1 141530Z 15009KT M02/M02 A3029 RMK A01 T10211022  RH  100%=      5-min Rain = 0
KLD1 141535Z 16009KT M02/M02 A3029 RMK A01 T10191020  RH  100%=      5-min Rain = 0
KLD1 141540Z 15009KT M02/M02 A3029 RMK A01 T10181019  RH  100%=      5-min Rain = 0
KLD1 141545Z 15009KT M02/M02 A3029 RMK A01 T10181019  RH  100%=      5-min Rain = 0
KLD1 141550Z 16009KT M02/M02 A3029 RMK A01 T10171018  RH  100%=      5-min Rain = 0
KLD1 141555Z 16009KT M02/M02 A3029 RMK A01 T10161017  RH  100%=      5-min Rain = 0
KLD1 141600Z 16009KT M02/M02 A3029 RMK A01 T10161017  RH  100%=      5-min Rain = 0
KLD1 141605Z 16009KT M02/M02 A3029 RMK A01 T10161017  RH  100%=      5-min Rain = 0
KLD1 141610Z 16009KT M02/M02 A3029 RMK A01 T10151016  RH  100%=      5-min Rain = 0
KLD1 141615Z 17010KT M02/M02 A3029 RMK A01 T10151016  RH  100%=      5-min Rain = 0
KLD1 141620Z 17010KT M01/M02 A3029 RMK A01 T10141016  RH  100%=      5-min Rain = 0
KLD1 141625Z 17010KT M01/M02 A3029 RMK A01 T10141015  RH  100%=      5-min Rain = 0
KLD1 141630Z 17010KT M01/M01 A3029 RMK A01 T10131014  RH  100%=      5-min Rain = 0
KLD1 141635Z 17009KT M01/M01 A3029 RMK A01 T10131014  RH  100%=      5-min Rain = 0
KLD1 141640Z 17009KT M01/M01 A3029 RMK A01 T10131014  RH  100%=      5-min Rain = 0
KLD1 141645Z 17009KT M01/M01 A3029 RMK A01 T10131014  RH  100%=      5-min Rain = 0
KLD1 141650Z 17009KT M01/M01 A3028 RMK A01 T10121014  RH  100%=      5-min Rain = 0
KLD1 141655Z 17010KT M01/M01 A3028 RMK A01 T10121014  RH  100%=      5-min Rain = 0
KLD1 141700Z 17010KT M01/M01 A3028 RMK A01 T10121013  RH  100%=      5-min Rain = 0
KLD1 141705Z 17009KT M01/M01 A3028 RMK A01 T10121013  RH  100%=      5-min Rain = 0
KLD1 141710Z 17010KT M01/M01 A3028 RMK A01 T10111012  RH  100%=      5-min Rain = 0
KLD1 141715Z 17010KT M01/M01 A3028 RMK A01 T10111012  RH  100%=      5-min Rain = 0
KLD1 141720Z 18010KT M01/M01 A3028 RMK A01 T10101011  RH  100%=      5-min Rain = 0
KLD1 141725Z 17010KT M01/M01 A3028 RMK A01 T10091010  RH  100%=      5-min Rain = 0
KLD1 141730Z 16010KT M01/M01 A3028 RMK A01 T10091010  RH  100%=      5-min Rain = 0
KLD1 141735Z 18010KT M01/M01 A3028 RMK A01 T10081010  RH  100%=      5-min Rain = 0
KLD1 141740Z 18010KT M01/M01 A3028 RMK A01 T10071009  RH  100%=      5-min Rain = 0
KLD1 141745Z 18010KT M01/M01 A3027 RMK A01 T10071009  RH  099%=      5-min Rain = 0
KLD1 141750Z 18011G16KT M01/M01 A3027 RMK A01 T10051007  RH  099%=      5-min Rain = 0
KLD1 141755Z 18011KT M01/M01 A3027 RMK A01 T10051008  RH  099%=      5-min Rain = 0
KLD1 141800Z 18010KT M00/M01 A3027 RMK A01 T10031007  RH  098%=      5-min Rain = 0
KLD1 141805Z 18010KT M00/M01 A3027 RMK A01 T10031007  RH  098%=      5-min Rain = 0
KLD1 141810Z 18012KT M00/M01 A3027 RMK A01 T10031007  RH  098%=      5-min Rain = 0
KLD1 141815Z 19013KT M00/M01 A3027 RMK A01 T10031008  RH  097%=      5-min Rain = 0
KLD1 141820Z 19011KT M00/M01 A3026 RMK A01 T10021008  RH  097%=      5-min Rain = 0
KLD1 141825Z 18012KT M00/M01 A3026 RMK A01 T10021007  RH  097%=      5-min Rain = 0
KLD1 141830Z 19011KT M00/M01 A3026 RMK A01 T10011006  RH  097%=      5-min Rain = 0
KLD1 141835Z 18010KT 00/M01 A3026 RMK A01 T00011006  RH  096%=      5-min Rain = 0
KLD1 141840Z 18010KT 00/01 A3025 RMK A01 T00-000-6  RH  097%=      5-min Rain = 0
KLD1 141845Z 19011KT 00/01 A3025 RMK A01 T00-000-6  RH  097%=      5-min Rain = 0
KLD1 141850Z 17010KT 00/M01 A3024 RMK A01 T00011005  RH  097%=      5-min Rain = 0
KLD1 141855Z 19011KT 00/M01 A3024 RMK A01 T00011005  RH  097%=      5-min Rain = 0
KLD1 141900Z 19011KT 00/M01 A3024 RMK A01 T00021005  RH  096%=      5-min Rain = 0
KLD1 141905Z 19012KT 00/M01 A3024 RMK A01 T00021006  RH  095%=      5-min Rain = 0
KLD1 141910Z 18011KT 00/M01 A3024 RMK A01 T00021006  RH  095%=      5-min Rain = 0
KLD1 141915Z 18011KT 00/M00 A3023 RMK A01 T00031004  RH  096%=      5-min Rain = 0
KLD1 141920Z 19012KT 00/M01 A3023 RMK A01 T00041005  RH  095%=      5-min Rain = 0
KLD1 141925Z 19011KT 00/M01 A3023 RMK A01 T00041005  RH  095%=      5-min Rain = 0
KLD1 141930Z 19011KT 01/M00 A3023 RMK A01 T00051004  RH  095%=      5-min Rain = 0
KLD1 141935Z 19011KT 01/M00 A3023 RMK A01 T00061003  RH  095%=      5-min Rain = 0
KLD1 141940Z 18010KT 01/M00 A3023 RMK A01 T00061003  RH  094%=      5-min Rain = 0
KLD1 141945Z 19010KT 01/M00 A3023 RMK A01 T00071003  RH  094%=      5-min Rain = 0
KLD1 141950Z 18012KT 01/M00 A3022 RMK A01 T00061004  RH  094%=      5-min Rain = 0
KLD1 141955Z 19011KT 01/M00 A3022 RMK A01 T00061003  RH  094%=      5-min Rain = 0
KLD1 142000Z 18012KT 01/M00 A3021 RMK A01 T00061003  RH  094%=      5-min Rain = 0
KLD1 142005Z 18012KT 01/M00 A3021 RMK A01 T00071003  RH  094%=      5-min Rain = 0
KLD1 142010Z 18012KT 01/M00 A302 RMK A01 T00081004  RH  093%=      5-min Rain = 0
KLD1 142015Z 19011KT 01/M00 A302 RMK A01 T00081004  RH  093%=      5-min Rain = 0
KLD1 142020Z 17012KT 01/M00 A302 RMK A01 T00091004  RH  092%=      5-min Rain = 0
KLD1 142025Z 17012KT 01/M00 A3019 RMK A01 T00101004  RH  092%=      5-min Rain = 0
KLD1 142030Z 17012KT 01/M01 A3019 RMK A01 T00091005  RH  092%=      5-min Rain = 0
KLD1 142035Z 17010KT 01/M00 A3019 RMK A01 T00111002  RH  092%=      5-min Rain = 0
KLD1 142040Z 18010KT 01/M00 A3019 RMK A01 T00111003  RH  092%=      5-min Rain = 0
KLD1 142045Z 18010KT 01/M00 A3018 RMK A01 T00121002  RH  092%=      5-min Rain = 0
KLD1 142050Z 18012KT 01/M00 A3018 RMK A01 T00131002  RH  091%=      5-min Rain = 0
KLD1 142055Z 18012KT 01/M00 A3018 RMK A01 T00131003  RH  090%=      5-min Rain = 0
KLD1 142100Z 18011KT 01/M00 A3018 RMK A01 T00131002  RH  090%=      5-min Rain = 0
KLD1 142105Z 18011KT 02/M00 A3018 RMK A01 T00151001  RH  090%=      5-min Rain = 0
KLD1 142110Z 18012KT 02/M00 A3018 RMK A01 T00151002  RH  089%=      5-min Rain = 0
KLD1 142115Z 18011KT 02/00 A3018 RMK A01 T00180000  RH  089%=      5-min Rain = 0
KLD1 142120Z 17010G15KT 02/00 A3017 RMK A01 T001800-0  RH  088%=      5-min Rain = 0
KLD1 142125Z 17011KT 02/00 A3017 RMK A01 T00190000  RH  089%=      5-min Rain = 0
KLD1 142130Z 18013KT 02/M00 A3017 RMK A01 T00171001  RH  089%=      5-min Rain = 0
KLD1 142135Z 19012KT 02/00 A3017 RMK A01 T001800-0  RH  089%=      5-min Rain = 0
KLD1 142140Z 17011KT 02/00 A3017 RMK A01 T00190000  RH  088%=      5-min Rain = 0
KLD1 142145Z 17012KT 02/00 A3017 RMK A01 T00180001  RH  089%=      5-min Rain = 0
KLD1 142150Z 17012KT 02/00 A3016 RMK A01 T00180001  RH  089%=      5-min Rain = 0
KLD1 142155Z 17012KT 02/00 A3016 RMK A01 T00200002  RH  089%=      5-min Rain = 0
KLD1 142200Z 18011G16KT 02/00 A3016 RMK A01 T00210002  RH  088%=      5-min Rain = 0
KLD1 142205Z 18009KT 02/00 A3016 RMK A01 T00220002  RH  088%=      5-min Rain = 0
KLD1 142210Z 17012KT 02/00 A3016 RMK A01 T00230002  RH  087%=      5-min Rain = 0
KLD1 142215Z 17013G18KT 02/00 A3015 RMK A01 T00240002  RH  086%=      5-min Rain = 0
KLD1 142220Z 17012KT 03/00 A3015 RMK A01 T00250002  RH  086%=      5-min Rain = 0
KLD1 142225Z 17012KT 03/00 A3015 RMK A01 T00250001  RH  086%=      5-min Rain = 0
KLD1 142230Z 18011KT 03/00 A3015 RMK A01 T00260003  RH  086%=      5-min Rain = 0
KLD1 142235Z 18012KT 03/00 A3015 RMK A01 T00260002  RH  085%=      5-min Rain = 0
KLD1 142240Z 18012KT 03/00 A3015 RMK A01 T00270003  RH  085%=      5-min Rain = 0
KLD1 142245Z 16010G16KT 03/00 A3015 RMK A01 T00280004  RH  085%=      5-min Rain = 0
KLD1 142250Z 16011KT 03/00 A3015 RMK A01 T00280004  RH  085%=      5-min Rain = 0
KLD1 142255Z 16012G17KT 03/01 A3015 RMK A01 T00280005  RH  086%=      5-min Rain = 0
KLD1 142300Z 16013KT 03/00 A3014 RMK A01 T00260003  RH  086%=      5-min Rain = 0
KLD1 142305Z 16014KT 03/00 A3014 RMK A01 T00260003  RH  086%=      5-min Rain = 0
KLD1 142310Z 15013KT 02/00 A3014 RMK A01 T00230002  RH  087%=      5-min Rain = 0
KLD1 142315Z 16012KT 02/00 A3014 RMK A01 T00220002  RH  088%=      5-min Rain = 0
KLD1 142320Z 16013KT 02/00 A3014 RMK A01 T00220002  RH  088%=      5-min Rain = 0
KLD1 142325Z 17013KT 02/00 A3014 RMK A01 T00220002  RH  087%=      5-min Rain = 0
KLD1 142330Z 17012G17KT 02/00 A3014 RMK A01 T00230003  RH  087%=      5-min Rain = 0
KLD1 142335Z 16013KT 02/00 A3014 RMK A01 T00230002  RH  088%=      5-min Rain = 0
KLD1 142340Z 16015G20KT 02/00 A3014 RMK A01 T00210001  RH  087%=      5-min Rain = 0
KLD1 142345Z 17014KT 02/00 A3014 RMK A01 T00220002  RH  088%=      5-min Rain = 0
KLD1 142350Z 16013KT 02/00 A3014 RMK A01 T00230003  RH  088%=      5-min Rain = 0
KLD1 142355Z 16014KT 02/00 A3014 RMK A01 T00220003  RH  088%=      5-min Rain = 0
KLD1 150000Z 16015KT 02/00 A3014 RMK A01 T00210002  RH  089%=      5-min Rain = 0
KLD1 150005Z 17012KT 02/00 A3014 RMK A01 T00210002  RH  088%=      5-min Rain = 0
KLD1 150010Z 16011KT 02/00 A3014 RMK A01 T00210003  RH  089%=      5-min Rain = 0
KLD1 150015Z 16012KT 02/00 A3015 RMK A01 T00200003  RH  089%=      5-min Rain = 0
KLD1 150020Z 16013KT 02/00 A3014 RMK A01 T00190002  RH  090%=      5-min Rain = 0
KLD1 150025Z 16014KT 02/00 A3014 RMK A01 T00180002  RH  090%=      5-min Rain = 0
KLD1 150030Z 16012KT 02/00 A3014 RMK A01 T00180002  RH  090%=      5-min Rain = 0
KLD1 150035Z 16012KT 02/00 A3015 RMK A01 T00180003  RH  090%=      5-min Rain = 0
KLD1 150040Z 16011KT 02/00 A3015 RMK A01 T00180003  RH  090%=      5-min Rain = 0
KLD1 150045Z 17009G14KT 02/00 A3015 RMK A01 T00190003  RH  090%=      5-min Rain = 0
KLD1 150050Z 16010KT 02/00 A3015 RMK A01 T00190003  RH  090%=      5-min Rain = 0
KLD1 150055Z 16011KT 02/00 A3015 RMK A01 T00190003  RH  090%=      5-min Rain = 0
KLD1 150100Z 17011KT 02/00 A3015 RMK A01 T00200004  RH  090%=      5-min Rain = 0
KLD1 150105Z 17010KT 02/00 A3014 RMK A01 T00200004  RH  090%=      5-min Rain = 0
KLD1 150110Z 18009KT 02/00 A3014 RMK A01 T00190002  RH  090%=      5-min Rain = 0
KLD1 150115Z 18007KT 02/00 A3014 RMK A01 T00170001  RH  090%=      5-min Rain = 0
KLD1 150120Z 19006KT 02/00 A3014 RMK A01 T00160000  RH  091%=      5-min Rain = 0
KLD1 150125Z 19006KT 01/M00 A3014 RMK A01 T00141001  RH  091%=      5-min Rain = 0
KLD1 150130Z 18006KT 01/M00 A3014 RMK A01 T00111003  RH  092%=      5-min Rain = 0
KLD1 150135Z 18006KT 01/M00 A3014 RMK A01 T00081004  RH  092%=      5-min Rain = 0
KLD1 150140Z 18006KT 01/M01 A3014 RMK A01 T00061005  RH  093%=      5-min Rain = 0
KLD1 150145Z 17005KT 01/M01 A3014 RMK A01 T00051005  RH  093%=      5-min Rain = 0
KLD1 150150Z 18005KT 00/M01 A3014 RMK A01 T00041007  RH  094%=      5-min Rain = 0
KLD1 150155Z 18004KT 00/M01 A3014 RMK A01 T00021008  RH  094%=      5-min Rain = 0
KLD1 150200Z 18004KT 00/01 A3014 RMK A01 T00-000-9  RH  094%=      5-min Rain = 0
KLD1 150205Z 17005KT M00/M01 A3014 RMK A01 T10021011  RH  094%=      5-min Rain = 0
KLD1 150210Z 17005KT M00/M01 A3013 RMK A01 T10041013  RH  095%=      5-min Rain = 0
KLD1 150215Z 18005KT M01/M01 A3013 RMK A01 T10051013  RH  095%=      5-min Rain = 0
KLD1 150220Z 18004KT M01/M01 A3013 RMK A01 T10061014  RH  096%=      5-min Rain = 0
KLD1 150225Z 19005KT M01/M01 A3014 RMK A01 T10071014  RH  096%=      5-min Rain = 0
KLD1 150230Z 19005KT M01/M02 A3014 RMK A01 T10091015  RH  096%=      5-min Rain = 0
KLD1 150235Z 19005KT M01/M02 A3014 RMK A01 T10091015  RH  096%=      5-min Rain = 0
KLD1 150240Z 19006KT M01/M02 A3014 RMK A01 T10091015  RH  097%=      5-min Rain = 0
KLD1 150245Z 19007KT M01/M01 A3014 RMK A01 T10081014  RH  097%=      5-min Rain = 0
KLD1 150250Z 18007KT M01/M01 A3014 RMK A01 T10051010  RH  097%=      5-min Rain = 0
KLD1 150255Z 18007KT M00/M01 A3014 RMK A01 T10021007  RH  097%=      5-min Rain = 0
KLD1 150300Z 18007KT 00/01 A3014 RMK A01 T00-000-6  RH  097%=      5-min Rain = 0
KLD1 150305Z 19008KT 00/01 A3014 RMK A01 T000000-6  RH  097%=      5-min Rain = 0
KLD1 150310Z 17007KT 00/M01 A3014 RMK A01 T00011005  RH  096%=      5-min Rain = 0
KLD1 150315Z 15007KT 00/01 A3014 RMK A01 T00-000-8  RH  096%=      5-min Rain = 0
KLD1 150320Z 15006KT M00/M01 A3014 RMK A01 T10021010  RH  096%=      5-min Rain = 0
KLD1 150325Z 14006KT M01/M01 A3014 RMK A01 T10051013  RH  096%=      5-min Rain = 0
KLD1 150330Z 16006KT M01/M01 A3014 RMK A01 T10061012  RH  096%=      5-min Rain = 0
KLD1 150335Z 17005KT M01/M01 A3014 RMK A01 T10051011  RH  097%=      5-min Rain = 0
KLD1 150340Z 18005KT M01/M01 A3014 RMK A01 T10051011  RH  097%=      5-min Rain = 0
KLD1 150345Z 18006KT M00/M01 A3014 RMK A01 T10021008  RH  097%=      5-min Rain = 0
KLD1 150350Z 20006KT 00/01 A3014 RMK A01 T000000-6  RH  097%=      5-min Rain = 0
KLD1 150355Z 20006KT 00/M01 A3014 RMK A01 T00011006  RH  096%=      5-min Rain = 0
KLD1 150400Z 19006KT 00/M00 A3014 RMK A01 T00031004  RH  096%=      5-min Rain = 0
KLD1 150405Z 18006KT 01/M00 A3014 RMK A01 T00051002  RH  096%=      5-min Rain = 0
KLD1 150410Z 18008KT 01/M00 A3013 RMK A01 T00071001  RH  096%=      5-min Rain = 0
KLD1 150415Z 18009KT 01/00 A3013 RMK A01 T00090001  RH  095%=      5-min Rain = 0
KLD1 150420Z 17009KT 01/00 A3013 RMK A01 T00100001  RH  094%=      5-min Rain = 0
KLD1 150425Z 18010KT 01/00 A3013 RMK A01 T001000-0  RH  094%=      5-min Rain = 0
KLD1 150430Z 18010KT 01/00 A3013 RMK A01 T001000-0  RH  094%=      5-min Rain = 0
KLD1 150435Z 18010KT 01/00 A3013 RMK A01 T00110001  RH  094%=      5-min Rain = 0
KLD1 150440Z 18009KT 01/00 A3013 RMK A01 T00120001  RH  094%=      5-min Rain = 0
KLD1 150445Z 18009KT 01/00 A3013 RMK A01 T00120001  RH  094%=      5-min Rain = 0
KLD1 150450Z 18010KT 01/00 A3012 RMK A01 T00110000  RH  094%=      5-min Rain = 0
KLD1 150455Z 18011KT 01/00 A3012 RMK A01 T00110000  RH  094%=      5-min Rain = 0
KLD1 150500Z 17011KT 01/00 A3011 RMK A01 T00120002  RH  094%=      5-min Rain = 0
KLD1 150505Z 18010KT 01/00 A3012 RMK A01 T00120002  RH  094%=      5-min Rain = 0
KLD1 150510Z 18011KT 01/00 A3012 RMK A01 T00140003  RH  094%=      5-min Rain = 0
KLD1 150515Z 18012KT 02/00 A3011 RMK A01 T00150004  RH  094%=      5-min Rain = 0
KLD1 150520Z 18012KT 02/01 A3011 RMK A01 T00160005  RH  093%=      5-min Rain = 0
KLD1 150525Z 18012KT 02/01 A3011 RMK A01 T00170005  RH  093%=      5-min Rain = 0
KLD1 150530Z 18013KT 02/01 A3011 RMK A01 T00180006  RH  093%=      5-min Rain = 0
KLD1 150535Z 18012KT 02/01 A3011 RMK A01 T00200007  RH  093%=      5-min Rain = 0
KLD1 150540Z 18013KT 02/01 A3011 RMK A01 T00220009  RH  092%=      5-min Rain = 0
KLD1 150545Z 18012KT 02/01 A3011 RMK A01 T00240010  RH  092%=      5-min Rain = 0
KLD1 150550Z 18012KT 02/01 A3011 RMK A01 T00240010  RH  092%=      5-min Rain = 0
KLD1 150555Z 19012G17KT 03/01 A301 RMK A01 T00250011  RH  092%=      5-min Rain = 0

Page generated in 0.0322 seconds.